Arbor Hill, Iowa
Current Conditions -  °F | °C
As of 6:15 PM on Friday 24 Oct 2014 (Local Time) from KPRO Reporting Station
Clear Clear  
Wind Chill: 67°   Ceiling: Unl
Heat Index: 67°   Visibility: 10mi
Dew Point: 58°   Wind: 6mph
Humidity: 73%   Direction: 230°SW
Pressure: 29.9"   Gusts: NA
Location:  41.5397°N, 94.299°W
Report Text: KPRO 242315Z AUTO 23005KT 10SM CLR 20/15 A2990 RMK AO2 T01950145
Loading
Personal Weather Stations






























Interactive Weather Map
Tropical Storm Tracking
New forecast layout! Learn more

10-Day Weather Forecast

Advertisements
Track Severe Weather on mobile